首页
METAR-TAF:

METAR-TAF

机场 :

瓦加杜古國際機場

瓦加杜古, 布吉納法索

纬度: 12-21N, 经度: 001-31W, 海拔: 316米

当前天气观测

该预报发布于46分钟前的08:00 UTC
风速2节,风向西
温度 24°C
湿度 83%
气压 1014 hPa
能见度10公里或以上
少量云层高于1600英尺

METAR: DFFD 140800Z 28002KT 9999 FEW016 24/21 Q1014 NOSIG

时间: 08:46 (08:46 UTC)

预报

该预报发布于3小时和46分钟前的05:00 UTC
预报有效从14日的 06点(UTC)到 15日的 12点(UTC)
风速8节,风向西
能见度10公里或以上
散云层高于2000英尺
短暂存在
从 14日的 06点(UTC)到 14日的 10点(UTC)
多云层高于1000英尺
短暂存在
从 14日的 12点(UTC)到 14日的 24点(UTC)
能見度: 4000
散云层高于2000英尺
散云层高于3600英尺, 积雨云.
雷暴, 雨

TAF: DFFD 140500Z 1406/1512 26008KT 9999 SCT020 TEMPO 1406/1410 BKN010 TEMPO 1412/1424 4000 TSRA SCT020 SCT036CB

超过4000个机场的气象观测和天气预报(METAR&TAF报告)。

可查询的气象台以黄色和红色小点在地图上表示。

将鼠标移到小点上方,可查看气象台名称。

然后点击查看天气观测和预报。

如需切换地图:点击带黑十字的绿色按钮放大地图;点击带横线的绿色按钮缩小地图;或者点击绿色箭头查看邻近地区的地图。


METAR-TAF: